createdAt,value
2023-02-09T00:00:06.598Z,24.92
2023-02-09T00:02:40.728Z,24.58
2023-02-09T00:05:09.358Z,26.70
2023-02-09T00:07:36.208Z,26.13
2023-02-09T00:10:03.774Z,24.40
2023-02-09T00:12:49.257Z,25.75
2023-02-09T00:15:16.066Z,24.73
2023-02-09T00:17:43.018Z,23.90
2023-02-09T00:20:10.644Z,25.60
2023-02-09T00:22:37.612Z,24.75
2023-02-09T00:25:04.622Z,24.30
2023-02-09T00:27:32.454Z,24.70
2023-02-09T00:29:59.852Z,22.23
2023-02-09T00:32:26.781Z,23.60
2023-02-09T00:34:53.726Z,23.98
2023-02-09T00:37:20.560Z,22.55
2023-02-09T00:39:47.454Z,22.27
2023-02-09T00:42:14.184Z,22.15
2023-02-09T00:44:41.968Z,21.77
2023-02-09T00:47:09.654Z,22.02
2023-02-09T00:49:37.005Z,21.95
2023-02-09T00:52:04.808Z,22.75
2023-02-09T00:54:31.673Z,21.15
2023-02-09T00:57:05.054Z,20.98
2023-02-09T00:59:35.161Z,21.85
2023-02-09T01:02:03.290Z,21.15
2023-02-09T01:04:30.296Z,21.92
2023-02-09T01:06:57.166Z,21.90
2023-02-09T01:09:24.468Z,23.25
2023-02-09T01:11:51.257Z,22.33
2023-02-09T01:14:18.747Z,22.60
2023-02-09T01:16:46.050Z,23.02
2023-02-09T01:19:14.304Z,22.75
2023-02-09T01:21:41.916Z,24.50
2023-02-09T01:24:12.252Z,26.52
2023-02-09T01:26:39.010Z,25.92
2023-02-09T01:29:05.777Z,25.80
2023-02-09T01:31:34.837Z,27.23
2023-02-09T01:34:03.669Z,26.55
2023-02-09T01:36:31.745Z,27.20
2023-02-09T01:39:01.124Z,24.45
2023-02-09T01:41:28.569Z,26.63
2023-02-09T01:44:14.909Z,25.70
2023-02-09T01:46:41.708Z,25.83
2023-02-09T01:49:26.287Z,25.08
2023-02-09T01:52:07.648Z,25.13
2023-02-09T01:54:38.315Z,26.08
2023-02-09T01:57:18.328Z,26.20
2023-02-09T01:59:50.742Z,24.73
2023-02-09T02:02:17.665Z,23.85
2023-02-09T02:04:45.589Z,25.13
2023-02-09T02:07:21.363Z,23.90
2023-02-09T02:09:49.358Z,24.60
2023-02-09T02:12:16.543Z,24.13
2023-02-09T02:14:43.426Z,24.90
2023-02-09T02:17:39.452Z,23.00
2023-02-09T02:20:29.744Z,24.75
2023-02-09T02:23:19.727Z,23.60
2023-02-09T02:26:07.072Z,25.25
2023-02-09T02:28:43.178Z,23.23
2023-02-09T02:31:38.350Z,22.55
2023-02-09T02:34:23.702Z,24.83
2023-02-09T02:37:16.028Z,23.45
2023-02-09T02:40:24.292Z,24.00
2023-02-09T02:42:59.740Z,23.23
2023-02-09T02:45:38.421Z,22.55
2023-02-09T02:48:29.773Z,23.70
2023-02-09T02:51:08.553Z,23.55
2023-02-09T02:53:40.074Z,24.40
2023-02-09T02:56:28.038Z,22.17
2023-02-09T02:58:59.570Z,21.65
2023-02-09T03:01:32.288Z,22.85
2023-02-09T03:04:01.125Z,22.83
2023-02-09T03:06:27.950Z,22.27
2023-02-09T03:08:56.908Z,24.55
2023-02-09T03:11:28.256Z,22.05
2023-02-09T03:14:01.026Z,20.90
2023-02-09T03:16:27.815Z,22.40
2023-02-09T03:19:16.601Z,21.23
2023-02-09T03:22:15.354Z,20.63
2023-02-09T03:24:52.381Z,20.70
2023-02-09T03:27:21.973Z,21.27
2023-02-09T03:29:52.978Z,20.55
2023-02-09T03:32:21.543Z,19.85
2023-02-09T03:34:49.152Z,20.38
2023-02-09T03:37:17.631Z,18.65
2023-02-09T03:39:44.502Z,19.67
2023-02-09T03:42:11.233Z,18.83
2023-02-09T03:44:38.297Z,19.50
2023-02-09T03:47:07.806Z,20.05
2023-02-09T03:49:39.155Z,19.95
2023-02-09T03:52:11.174Z,19.95
2023-02-09T03:54:38.657Z,18.05
2023-02-09T03:57:06.442Z,19.80
2023-02-09T03:59:35.726Z,18.98
2023-02-09T04:02:03.561Z,19.50
2023-02-09T04:04:30.511Z,18.83
2023-02-09T04:06:57.726Z,19.05
2023-02-09T04:09:25.814Z,18.13
2023-02-09T04:11:53.907Z,19.88
2023-02-09T04:14:20.733Z,20.58
2023-02-09T04:16:47.818Z,19.00
2023-02-09T04:19:15.880Z,17.95
2023-02-09T04:21:43.029Z,17.73
2023-02-09T04:24:10.143Z,20.25
2023-02-09T04:26:36.975Z,19.02
2023-02-09T04:29:04.321Z,18.80
2023-02-09T04:31:32.024Z,19.58
2023-02-09T04:33:58.908Z,18.48
2023-02-09T04:36:25.718Z,18.95
2023-02-09T04:38:52.490Z,18.38
2023-02-09T04:41:19.290Z,17.92
2023-02-09T04:43:49.098Z,18.70
2023-02-09T04:46:17.827Z,19.75
2023-02-09T04:48:44.740Z,19.00
2023-02-09T04:51:11.786Z,19.92
2023-02-09T04:53:38.626Z,19.38
2023-02-09T04:56:06.394Z,18.58
2023-02-09T04:58:51.625Z,17.73
2023-02-09T05:01:24.644Z,18.45
2023-02-09T05:03:52.074Z,19.70
2023-02-09T05:06:19.450Z,21.48
2023-02-09T05:08:46.978Z,19.33
2023-02-09T05:11:13.832Z,19.30
2023-02-09T05:13:40.878Z,18.38
2023-02-09T05:16:09.191Z,18.98
2023-02-09T05:18:36.667Z,18.45
2023-02-09T05:21:03.655Z,19.83
2023-02-09T05:23:30.699Z,20.48
2023-02-09T05:25:57.501Z,19.15
2023-02-09T05:28:25.303Z,19.60
2023-02-09T05:30:53.869Z,20.67
2023-02-09T05:33:27.028Z,19.35
2023-02-09T05:35:56.071Z,18.90
2023-02-09T05:38:22.921Z,20.02
2023-02-09T05:40:50.322Z,19.33
2023-02-09T05:43:17.764Z,18.85
2023-02-09T05:45:45.093Z,17.60
2023-02-09T05:48:11.843Z,19.67
2023-02-09T05:50:38.592Z,20.15
2023-02-09T05:53:09.254Z,19.00
2023-02-09T05:55:44.457Z,20.10
2023-02-09T05:58:13.965Z,19.83
2023-02-09T06:00:40.718Z,20.10
2023-02-09T06:03:07.492Z,19.45
2023-02-09T06:05:34.324Z,19.23
2023-02-09T06:08:02.072Z,19.20
2023-02-09T06:10:28.815Z,19.05
2023-02-09T06:12:55.576Z,19.00
2023-02-09T06:15:22.359Z,20.20
2023-02-09T06:17:49.203Z,20.25
2023-02-09T06:20:15.982Z,19.52
2023-02-09T06:22:42.792Z,19.95
2023-02-09T06:25:09.571Z,19.95
2023-02-09T06:27:36.898Z,18.70
2023-02-09T06:30:04.058Z,19.33
2023-02-09T06:32:31.918Z,18.45
2023-02-09T06:34:58.848Z,19.52
2023-02-09T06:37:25.597Z,19.75
2023-02-09T06:39:52.356Z,19.73
2023-02-09T06:42:19.072Z,19.98
2023-02-09T06:44:45.927Z,18.63
2023-02-09T06:47:12.851Z,19.25
2023-02-09T06:49:39.599Z,17.60
2023-02-09T06:52:06.518Z,17.63
2023-02-09T06:54:33.320Z,17.52
2023-02-09T06:57:00.242Z,17.80
2023-02-09T06:59:26.996Z,19.38
2023-02-09T07:01:55.118Z,18.42
2023-02-09T07:04:22.271Z,18.50
2023-02-09T07:06:49.045Z,19.13
2023-02-09T07:09:15.840Z,17.58
2023-02-09T07:11:42.675Z,18.38
2023-02-09T07:14:09.609Z,18.08
2023-02-09T07:16:36.357Z,17.10
2023-02-09T07:19:03.351Z,17.45
2023-02-09T07:21:30.189Z,19.13
2023-02-09T07:23:57.015Z,19.23
2023-02-09T07:26:23.796Z,19.33
2023-02-09T07:28:50.639Z,18.20
2023-02-09T07:31:17.623Z,17.05
2023-02-09T07:33:44.882Z,19.27
2023-02-09T07:36:14.410Z,17.52
2023-02-09T07:38:42.306Z,17.95
2023-02-09T07:41:18.221Z,20.13
2023-02-09T07:43:45.854Z,22.05
2023-02-09T07:46:15.694Z,19.13
2023-02-09T07:48:42.469Z,18.27
2023-02-09T07:51:20.244Z,17.15
2023-02-09T07:53:47.723Z,19.30
2023-02-09T07:56:14.567Z,17.80
2023-02-09T07:58:41.685Z,17.48
2023-02-09T08:01:11.659Z,18.60
2023-02-09T08:03:40.168Z,17.33
2023-02-09T08:06:42.583Z,18.60
2023-02-09T08:09:12.012Z,18.40
2023-02-09T08:11:45.760Z,18.15
2023-02-09T08:14:22.154Z,18.48
2023-02-09T08:16:52.634Z,18.20
2023-02-09T08:19:23.808Z,18.60
2023-02-09T08:21:51.403Z,19.17
2023-02-09T08:24:20.398Z,18.55
2023-02-09T08:26:47.350Z,19.55
2023-02-09T08:29:14.197Z,18.45
2023-02-09T08:31:41.196Z,19.45
2023-02-09T08:34:08.181Z,17.67
2023-02-09T08:36:37.651Z,19.27
2023-02-09T08:39:05.803Z,19.25
2023-02-09T08:41:33.720Z,20.10
2023-02-09T08:44:01.573Z,18.52
2023-02-09T08:46:28.825Z,18.73
2023-02-09T08:48:55.686Z,19.02
2023-02-09T08:51:22.486Z,19.48
2023-02-09T08:53:52.684Z,21.00
2023-02-09T08:56:21.349Z,19.40
2023-02-09T08:58:48.765Z,18.90
2023-02-09T09:01:15.897Z,20.30
2023-02-09T09:03:42.914Z,19.23
2023-02-09T09:06:12.037Z,18.95
2023-02-09T09:08:40.420Z,20.08
2023-02-09T09:11:12.849Z,21.45
2023-02-09T09:13:44.340Z,19.40
2023-02-09T09:16:17.760Z,20.15
2023-02-09T09:21:13.136Z,18.63
2023-02-09T09:23:39.965Z,19.35
2023-02-09T09:26:07.311Z,19.25
2023-02-09T09:28:34.353Z,20.65
2023-02-09T09:31:06.871Z,21.02
2023-02-09T09:33:33.764Z,20.08
2023-02-09T09:36:02.147Z,21.27
2023-02-09T09:38:31.632Z,21.73
2023-02-09T09:40:58.423Z,21.48
2023-02-09T09:43:29.794Z,21.85
2023-02-09T09:45:56.954Z,20.77
2023-02-09T09:48:31.718Z,21.05
2023-02-09T09:51:06.625Z,19.27
2023-02-09T09:53:36.724Z,21.33
2023-02-09T09:56:07.653Z,21.58
2023-02-09T09:58:39.293Z,19.45
2023-02-09T10:01:06.914Z,19.88
2023-02-09T10:03:33.684Z,20.38
2023-02-09T10:06:10.793Z,20.60
2023-02-09T10:09:04.326Z,20.92
2023-02-09T10:11:38.739Z,21.52
2023-02-09T10:14:05.836Z,20.67
2023-02-09T10:16:38.274Z,21.30
2023-02-09T10:19:18.758Z,22.00
2023-02-09T10:21:45.623Z,21.77
2023-02-09T10:24:22.835Z,22.33
2023-02-09T10:27:09.317Z,21.52
2023-02-09T10:29:36.696Z,20.48
2023-02-09T10:32:12.424Z,21.33
2023-02-09T10:34:40.875Z,20.98
2023-02-09T10:37:21.343Z,22.40
2023-02-09T10:40:01.730Z,21.90
2023-02-09T10:42:32.758Z,22.38
2023-02-09T10:45:08.106Z,20.92
2023-02-09T10:47:35.143Z,21.85
2023-02-09T10:50:12.615Z,19.38
2023-02-09T10:52:59.213Z,20.88
2023-02-09T10:55:41.598Z,20.35
2023-02-09T10:58:11.532Z,20.70
2023-02-09T11:00:50.090Z,20.10
2023-02-09T11:03:21.144Z,21.83
2023-02-09T11:05:56.942Z,19.60
2023-02-09T11:08:27.077Z,19.98
2023-02-09T11:11:06.085Z,18.15
2023-02-09T11:13:34.470Z,19.83
2023-02-09T11:16:38.082Z,18.10
2023-02-09T11:19:23.930Z,18.42
2023-02-09T11:22:40.725Z,14.15
2023-02-09T11:25:28.892Z,15.73
2023-02-09T11:28:20.560Z,15.90
2023-02-09T11:31:15.036Z,16.52
2023-02-09T11:33:47.867Z,15.20
2023-02-09T11:36:33.236Z,15.80
2023-02-09T11:39:05.585Z,14.82
2023-02-09T11:41:57.413Z,15.43
2023-02-09T11:44:41.584Z,15.40
2023-02-09T11:47:14.933Z,16.38
2023-02-09T11:52:40.418Z,15.90
2023-02-09T11:55:27.473Z,14.07
2023-02-09T11:58:08.779Z,15.90
2023-02-09T12:00:57.752Z,15.82
2023-02-09T12:03:28.672Z,16.33
2023-02-09T12:05:56.871Z,15.45
2023-02-09T12:08:38.556Z,14.02
2023-02-09T12:11:26.554Z,13.93
2023-02-09T12:13:58.958Z,13.48
2023-02-09T12:16:33.753Z,13.30
2023-02-09T12:19:02.471Z,13.40
2023-02-09T12:21:35.328Z,13.10
2023-02-09T12:24:27.721Z,13.57
2023-02-09T12:26:58.118Z,12.20
2023-02-09T12:29:40.444Z,11.30
2023-02-09T12:32:08.130Z,11.88
2023-02-09T12:34:49.778Z,11.38
2023-02-09T12:37:36.974Z,13.55
2023-02-09T12:40:03.903Z,11.27
2023-02-09T12:42:42.261Z,12.10
2023-02-09T12:45:30.643Z,11.65
2023-02-09T12:48:07.684Z,12.45
2023-02-09T12:50:55.488Z,12.00
2023-02-09T12:53:26.361Z,13.00
2023-02-09T12:56:10.862Z,11.80
2023-02-09T12:58:49.634Z,11.13
2023-02-09T13:01:18.195Z,11.88
2023-02-09T13:03:55.602Z,11.55
2023-02-09T13:06:28.511Z,11.48
2023-02-09T13:08:57.108Z,11.27
2023-02-09T13:11:31.558Z,11.52
2023-02-09T13:14:07.461Z,12.68
2023-02-09T13:16:55.080Z,11.65
2023-02-09T13:19:45.997Z,11.70
2023-02-09T13:22:25.366Z,10.50
2023-02-09T13:25:01.581Z,12.00
2023-02-09T13:27:30.714Z,11.55
2023-02-09T13:29:59.371Z,10.85
2023-02-09T13:32:53.495Z,9.98
2023-02-09T13:35:27.651Z,10.85
2023-02-09T13:37:59.281Z,11.15
2023-02-09T13:40:29.452Z,9.95
2023-02-09T13:43:14.928Z,11.10
2023-02-09T13:45:50.019Z,11.10
2023-02-09T13:48:35.891Z,10.38
2023-02-09T13:51:18.928Z,10.60
2023-02-09T13:54:00.680Z,10.93
2023-02-09T13:56:28.840Z,11.13
2023-02-09T13:58:56.852Z,11.65
2023-02-09T14:01:35.323Z,11.40
2023-02-09T14:04:02.094Z,11.68
2023-02-09T14:06:37.881Z,12.30
2023-02-09T14:09:11.898Z,11.48
2023-02-09T14:11:48.603Z,12.52
2023-02-09T14:14:22.375Z,12.60
2023-02-09T14:17:23.759Z,12.98
2023-02-09T14:19:52.427Z,11.48
2023-02-09T14:22:37.539Z,12.07
2023-02-09T14:25:23.215Z,13.07
2023-02-09T14:27:50.083Z,11.27
2023-02-09T14:30:25.815Z,10.70
2023-02-09T14:32:55.399Z,10.82
2023-02-09T14:35:36.650Z,10.23
2023-02-09T14:38:03.967Z,10.52
2023-02-09T14:40:37.216Z,9.63
2023-02-09T14:45:39.753Z,10.20
2023-02-09T14:48:25.423Z,10.73
2023-02-09T14:50:57.900Z,10.35
2023-02-09T14:53:27.971Z,10.57
2023-02-09T14:55:56.025Z,10.20
2023-02-09T14:58:31.307Z,10.40
2023-02-09T15:01:00.933Z,10.63
2023-02-09T15:03:28.216Z,10.73
2023-02-09T15:06:05.852Z,9.15
2023-02-09T15:08:37.016Z,9.88
2023-02-09T15:11:26.506Z,10.57
2023-02-09T15:13:58.706Z,8.98
2023-02-09T15:16:25.652Z,9.32
2023-02-09T15:18:53.517Z,9.45
2023-02-09T15:21:20.287Z,10.93
2023-02-09T15:23:47.146Z,9.93
2023-02-09T15:26:18.644Z,10.15
2023-02-09T15:28:45.586Z,8.90
2023-02-09T15:31:16.379Z,10.00
2023-02-09T15:33:43.268Z,9.63
2023-02-09T15:36:20.334Z,10.45
2023-02-09T15:38:47.993Z,10.68
2023-02-09T15:41:35.974Z,10.82
2023-02-09T15:44:36.484Z,9.77
2023-02-09T15:47:23.379Z,10.50
2023-02-09T15:49:50.590Z,10.77
2023-02-09T15:52:18.749Z,11.00
2023-02-09T15:54:45.904Z,9.80
2023-02-09T15:57:14.374Z,11.48
2023-02-09T15:59:41.575Z,10.30
2023-02-09T16:02:16.057Z,11.52
2023-02-09T16:04:43.205Z,11.95
2023-02-09T16:07:16.966Z,11.70
2023-02-09T16:09:44.013Z,10.48
2023-02-09T16:12:12.092Z,11.57
2023-02-09T16:14:39.109Z,11.45
2023-02-09T16:17:05.888Z,11.55
2023-02-09T16:19:32.715Z,11.82
2023-02-09T16:22:03.184Z,10.88
2023-02-09T16:24:45.627Z,12.68
2023-02-09T16:27:21.717Z,11.77
2023-02-09T16:29:48.540Z,12.27
2023-02-09T16:32:19.766Z,12.35
2023-02-09T16:34:46.705Z,12.63
2023-02-09T16:37:16.297Z,11.77
2023-02-09T16:39:43.880Z,11.90
2023-02-09T16:42:13.121Z,11.93
2023-02-09T16:44:40.089Z,12.27
2023-02-09T16:47:26.072Z,12.20
2023-02-09T16:50:02.867Z,13.32
2023-02-09T16:52:30.901Z,12.73
2023-02-09T16:55:00.409Z,12.40
2023-02-09T16:57:29.097Z,12.93
2023-02-09T16:59:56.139Z,13.57
2023-02-09T17:02:43.260Z,12.38
2023-02-09T17:05:22.831Z,13.13
2023-02-09T17:07:55.328Z,13.52
2023-02-09T17:10:25.424Z,13.95
2023-02-09T17:12:53.751Z,12.85
2023-02-09T17:15:30.005Z,13.07
2023-02-09T17:18:03.516Z,14.18
2023-02-09T17:20:38.232Z,13.90
2023-02-09T17:23:05.438Z,13.52
2023-02-09T17:25:32.381Z,13.85
2023-02-09T17:27:59.232Z,13.75
2023-02-09T17:30:26.159Z,13.77
2023-02-09T17:33:00.072Z,14.23
2023-02-09T17:35:53.085Z,13.02
2023-02-09T17:38:22.819Z,12.30
2023-02-09T17:40:51.057Z,13.25
2023-02-09T17:43:18.259Z,14.30
2023-02-09T17:45:51.186Z,12.90
2023-02-09T17:48:27.431Z,13.23
2023-02-09T17:50:58.016Z,14.05
2023-02-09T17:53:27.741Z,14.70
2023-02-09T17:55:56.443Z,16.77
2023-02-09T17:58:23.824Z,17.50
2023-02-09T18:00:53.199Z,18.80
2023-02-09T18:03:22.387Z,19.73
2023-02-09T18:05:55.778Z,19.10
2023-02-09T18:10:49.966Z,19.77
2023-02-09T18:13:18.702Z,20.15
2023-02-09T18:15:46.377Z,22.88
2023-02-09T18:18:13.406Z,21.10
2023-02-09T18:20:41.112Z,21.40
2023-02-09T18:23:08.973Z,23.13
2023-02-09T18:25:38.133Z,19.55
2023-02-09T18:28:07.015Z,21.05
2023-02-09T18:30:37.098Z,22.65
2023-02-09T18:33:04.889Z,21.65
2023-02-09T18:35:36.298Z,20.23
2023-02-09T18:38:05.371Z,18.88
2023-02-09T18:40:32.427Z,18.90
2023-02-09T18:43:01.137Z,21.58
2023-02-09T18:45:28.474Z,18.00
2023-02-09T18:47:55.408Z,17.55
2023-02-09T18:50:24.636Z,18.40
2023-02-09T18:52:54.213Z,17.60
2023-02-09T18:55:24.519Z,15.20
2023-02-09T18:57:52.674Z,15.23
2023-02-09T19:00:20.508Z,17.42
2023-02-09T19:02:53.490Z,16.77
2023-02-09T19:05:20.540Z,16.42
2023-02-09T19:07:47.462Z,17.15
2023-02-09T19:10:20.070Z,16.38
2023-02-09T19:12:47.098Z,16.08
2023-02-09T19:15:14.862Z,17.85
2023-02-09T19:17:42.228Z,19.85
2023-02-09T19:20:15.810Z,18.05
2023-02-09T19:22:44.531Z,17.88
2023-02-09T19:25:11.337Z,16.75
2023-02-09T19:27:39.676Z,16.75
2023-02-09T19:30:06.980Z,17.88
2023-02-09T19:32:33.808Z,17.90
2023-02-09T19:35:02.121Z,16.85
2023-02-09T19:37:31.152Z,17.80
2023-02-09T19:40:04.920Z,18.27
2023-02-09T19:42:32.629Z,15.45
2023-02-09T19:45:00.374Z,16.23
2023-02-09T19:47:28.925Z,15.95
2023-02-09T19:49:57.903Z,16.20
2023-02-09T19:52:26.834Z,18.52
2023-02-09T19:54:54.151Z,15.48
2023-02-09T19:57:22.317Z,14.80
2023-02-09T19:59:49.172Z,16.20
2023-02-09T20:02:17.238Z,16.58
2023-02-09T20:04:45.977Z,15.88
2023-02-09T20:07:14.012Z,15.75
2023-02-09T20:09:42.294Z,15.38
2023-02-09T20:12:09.016Z,17.77
2023-02-09T20:14:37.094Z,15.15
2023-02-09T20:17:06.539Z,15.00
2023-02-09T20:19:37.124Z,14.80
2023-02-09T20:22:04.299Z,15.38
2023-02-09T20:24:31.255Z,15.25
2023-02-09T20:26:58.132Z,15.20
2023-02-09T20:29:25.147Z,14.73
2023-02-09T20:31:51.969Z,13.30
2023-02-09T20:34:18.941Z,13.65
2023-02-09T20:36:48.184Z,13.48
2023-02-09T20:39:16.343Z,12.85
2023-02-09T20:42:06.736Z,13.35
2023-02-09T20:44:52.972Z,12.48
2023-02-09T20:47:19.999Z,13.20
2023-02-09T20:49:47.152Z,13.63
2023-02-09T20:52:16.410Z,13.60
2023-02-09T20:54:43.215Z,12.82
2023-02-09T20:57:12.627Z,13.63
2023-02-09T20:59:39.470Z,14.00
2023-02-09T21:02:06.317Z,12.80
2023-02-09T21:04:33.208Z,14.32
2023-02-09T21:07:00.572Z,14.40
2023-02-09T21:09:28.343Z,14.45
2023-02-09T21:11:55.497Z,14.70
2023-02-09T21:14:32.446Z,12.82
2023-02-09T21:17:05.966Z,13.73
2023-02-09T21:19:34.529Z,13.70
2023-02-09T21:22:01.414Z,13.93
2023-02-09T21:24:28.275Z,14.82
2023-02-09T21:26:55.084Z,13.65
2023-02-09T21:29:23.777Z,12.95
2023-02-09T21:31:52.064Z,13.25
2023-02-09T21:34:19.719Z,12.82
2023-02-09T21:36:46.620Z,12.40
2023-02-09T21:39:16.076Z,12.57
2023-02-09T21:42:02.612Z,12.40
2023-02-09T21:44:32.114Z,11.95
2023-02-09T21:47:00.555Z,11.98
2023-02-09T21:49:27.318Z,12.18
2023-02-09T21:51:54.113Z,12.13
2023-02-09T21:54:20.972Z,11.02
2023-02-09T21:56:47.901Z,12.40
2023-02-09T21:59:14.742Z,11.80
2023-02-09T22:01:42.566Z,12.15
2023-02-09T22:04:09.660Z,12.05
2023-02-09T22:06:36.510Z,12.27
2023-02-09T22:09:06.288Z,11.65
2023-02-09T22:11:33.536Z,12.30
2023-02-09T22:14:00.563Z,12.35
2023-02-09T22:16:27.360Z,12.75
2023-02-09T22:18:54.193Z,11.85
2023-02-09T22:21:21.061Z,11.95
2023-02-09T22:23:48.131Z,12.25
2023-02-09T22:26:15.297Z,13.80
2023-02-09T22:28:42.722Z,11.70
2023-02-09T22:31:12.727Z,12.38
2023-02-09T22:33:39.740Z,12.20
2023-02-09T22:36:11.396Z,13.48
2023-02-09T22:38:38.234Z,12.48
2023-02-09T22:41:21.408Z,12.70
2023-02-09T22:43:53.671Z,13.55
2023-02-09T22:46:25.436Z,13.70
2023-02-09T22:48:57.760Z,12.57
2023-02-09T22:51:27.018Z,14.25
2023-02-09T22:53:54.252Z,13.93
2023-02-09T22:56:21.147Z,11.88
2023-02-09T22:58:48.075Z,12.95
2023-02-09T23:01:15.477Z,13.30
2023-02-09T23:03:42.442Z,14.18
2023-02-09T23:06:16.778Z,13.18
2023-02-09T23:08:43.770Z,13.18
2023-02-09T23:11:16.757Z,13.90
2023-02-09T23:13:45.616Z,13.18
2023-02-09T23:16:16.530Z,12.93
2023-02-09T23:18:52.447Z,14.15
2023-02-09T23:21:20.772Z,13.10
2023-02-09T23:23:47.729Z,12.93
2023-02-09T23:26:16.008Z,12.52
2023-02-09T23:28:42.955Z,13.20
2023-02-09T23:31:13.101Z,13.32
2023-02-09T23:33:40.256Z,13.68
2023-02-09T23:36:09.198Z,13.18
2023-02-09T23:38:36.734Z,12.93
2023-02-09T23:41:08.488Z,13.88
2023-02-09T23:43:36.029Z,13.50
2023-02-09T23:46:04.269Z,14.30
2023-02-09T23:48:31.647Z,14.88
2023-02-09T23:51:06.393Z,13.63
2023-02-09T23:53:34.164Z,13.18
2023-02-09T23:56:04.106Z,14.68
2023-02-09T23:58:39.147Z,14.68
